TimeCDT,TemperatureF,Dew PointF,Humidity,Sea Level PressureIn,VisibilityMPH,Wind Direction,Wind SpeedMPH,Gust SpeedMPH,PrecipitationIn,Events,Conditions,WindDirDegrees,DateUTC
12:53 AM,55.9,52.0,87,30.17,9.0,South,4.6,-,N/A,,Overcast,170,2012-10-12 05:53:00
1:53 AM,55.9,52.0,87,30.15,9.0,Calm,Calm,-,N/A,,Overcast,0,2012-10-12 06:53:00
2:53 AM,54.0,52.0,93,30.14,8.0,Calm,Calm,-,N/A,,Partly Cloudy,0,2012-10-12 07:53:00
3:53 AM,53.1,52.0,96,30.14,6.0,Calm,Calm,-,N/A,,Clear,0,2012-10-12 08:53:00
4:53 AM,55.0,53.1,93,30.16,8.0,NE,5.8,-,N/A,,Overcast,40,2012-10-12 09:53:00
5:53 AM,55.0,51.1,86,30.17,9.0,Variable,4.6,16.1,N/A,,Overcast,0,2012-10-12 10:53:00
6:44 AM,55.4,51.8,88,30.21,8.0,NNW,4.6,-,0.01,Rain-Thunderstorm,Light Rain,330,2012-10-12 11:44:00
6:53 AM,54.0,53.1,97,30.24,5.0,NW,9.2,-,0.02,Rain-Thunderstorm,Light Thunderstorms and Rain,320,2012-10-12 11:53:00
7:01 AM,53.6,53.6,100,30.22,1.8,Variable,5.8,-,0.17,Rain-Thunderstorm,Heavy Thunderstorms and Rain,0,2012-10-12 12:01:00
7:14 AM,55.4,53.6,94,30.24,0.8,SSE,6.9,-,0.62,Rain-Thunderstorm,Heavy Thunderstorms and Rain,150,2012-10-12 12:14:00
7:22 AM,55.4,53.6,94,30.24,2.5,SE,10.4,-,0.63,Rain-Thunderstorm,Thunderstorms and Rain,130,2012-10-12 12:22:00
7:30 AM,55.4,53.6,94,30.22,4.0,NNE,6.9,-,0.64,Rain-Thunderstorm,Light Thunderstorms and Rain,30,2012-10-12 12:30:00
7:40 AM,55.4,55.4,100,30.22,4.0,NNE,8.1,-,0.67,Rain-Thunderstorm,Thunderstorms and Rain,30,2012-10-12 12:40:00
7:53 AM,55.9,55.0,97,30.26,5.0,SSW,6.9,-,0.69,Rain-Thunderstorm,Light Rain,210,2012-10-12 12:53:00
7:59 AM,55.4,55.4,100,30.26,4.0,SSW,4.6,-,0.01,Rain,Light Rain,200,2012-10-12 12:59:00
8:26 AM,55.4,55.4,100,30.25,3.0,ESE,3.5,-,0.07,Rain,Rain,110,2012-10-12 13:26:00
9:04 AM,55.4,55.4,100,30.27,2.0,Calm,Calm,-,0.03,Rain,Rain,0,2012-10-12 14:04:00
9:13 AM,55.4,55.4,100,30.27,2.5,SSE,5.8,-,0.05,Rain,Rain,160,2012-10-12 14:13:00
9:21 AM,55.4,55.4,100,30.28,3.0,SSE,4.6,-,0.06,Rain,Rain,160,2012-10-12 14:21:00
9:40 AM,55.4,55.4,100,30.28,2.5,SE,5.8,-,0.09,Rain,Rain,140,2012-10-12 14:40:00
9:53 AM,55.9,55.9,100,30.27,2.5,SSE,5.8,-,0.12,Rain,Rain,160,2012-10-12 14:53:00
10:06 AM,55.4,55.4,100,30.27,3.0,SE,6.9,-,0.03,Rain,Rain,140,2012-10-12 15:06:00
10:25 AM,55.4,55.4,100,30.27,2.5,SE,8.1,-,0.10,Rain,Heavy Rain,140,2012-10-12 15:25:00
10:33 AM,55.4,55.4,100,30.28,4.0,Variable,4.6,-,0.12,Rain,Rain,0,2012-10-12 15:33:00
10:41 AM,57.2,57.2,100,30.29,6.0,ENE,4.6,-,0.12,Rain-Thunderstorm,Light Rain,60,2012-10-12 15:41:00
11:53 AM,55.9,55.9,100,30.29,3.0,ESE,3.5,-,0.15,Rain,Rain,120,2012-10-12 16:53:00
12:46 PM,55.4,55.4,100,30.28,5.0,East,4.6,-,0.08,Rain,Light Rain,80,2012-10-12 17:46:00
12:53 PM,55.9,55.9,100,30.27,5.0,East,4.6,-,0.08,Rain,Light Rain,90,2012-10-12 17:53:00
1:53 PM,55.9,55.9,100,30.28,7.0,Calm,Calm,-,0.04,Rain,Light Rain,0,2012-10-12 18:53:00
2:20 PM,55.4,55.4,100,30.27,7.0,ESE,3.5,-,0.01,Rain,Light Rain,110,2012-10-12 19:20:00
2:53 PM,55.9,55.9,100,30.25,7.0,South,5.8,-,0.01,Rain,Light Rain,170,2012-10-12 19:53:00
3:26 PM,55.4,55.4,100,30.22,6.0,SE,5.8,-,0.01,Rain,Light Rain,140,2012-10-12 20:26:00
3:53 PM,57.0,57.0,100,30.18,6.0,ESE,8.1,-,0.01,Rain,Light Rain,120,2012-10-12 20:53:00
4:00 PM,57.2,57.2,100,30.17,6.0,SE,8.1,-,0.00,Rain,Light Rain,130,2012-10-12 21:00:00
4:53 PM,57.0,57.0,100,30.18,6.0,East,9.2,-,0.00,,Overcast,90,2012-10-12 21:53:00
5:28 PM,57.2,57.2,100,30.20,7.0,East,10.4,-,N/A,,Overcast,100,2012-10-12 22:28:00
5:53 PM,57.0,57.0,100,30.20,5.0,ENE,5.8,-,N/A,,Overcast,70,2012-10-12 22:53:00
6:53 PM,55.9,55.9,100,30.21,4.0,East,5.8,-,N/A,,Overcast,100,2012-10-12 23:53:00
7:18 PM,55.4,55.4,100,30.21,2.0,East,9.2,-,N/A,,Overcast,100,2012-10-13 00:18:00
7:25 PM,55.4,55.4,100,30.21,1.5,East,8.1,-,N/A,,Overcast,90,2012-10-13 00:25:00
7:53 PM,55.0,55.0,100,30.21,1.0,East,6.9,-,N/A,,Overcast,100,2012-10-13 00:53:00
8:02 PM,55.4,55.4,100,30.21,0.8,East,4.6,-,N/A,,Overcast,100,2012-10-13 01:02:00
8:13 PM,55.4,55.4,100,30.21,0.8,ESE,8.1,-,N/A,,Mist,110,2012-10-13 01:13:00
9:23 PM,55.4,55.4,100,30.21,0.8,ESE,6.9,-,N/A,,Overcast,110,2012-10-13 02:23:00
9:37 PM,55.4,55.4,100,30.20,0.5,ESE,5.8,-,N/A,Fog,Fog,110,2012-10-13 02:37:00
9:45 PM,55.4,55.4,100,30.20,0.8,ESE,9.2,-,N/A,,Mist,110,2012-10-13 02:45:00
9:53 PM,55.9,55.0,97,30.19,0.8,ESE,6.9,-,N/A,,Mist,110,2012-10-13 02:53:00
10:37 PM,55.4,55.4,100,30.20,0.5,ESE,6.9,-,N/A,Fog,Fog,110,2012-10-13 03:37:00
10:53 PM,55.9,55.0,97,30.19,0.5,ESE,6.9,-,N/A,Fog,Fog,110,2012-10-13 03:53:00
11:46 PM,55.4,55.4,100,30.20,0.8,ESE,5.8,-,N/A,,Mist,120,2012-10-13 04:46:00
11:53 PM,55.9,55.0,97,30.20,0.5,ESE,4.6,-,N/A,Fog,Fog,110,2012-10-13 04:53:00